Time;durP1;ratioP1;P1;durP2;ratioP2;P2;SDS_P1;SDS_P2;PMS_P1;PMS_P2;Temp;Humidity;BMP_temperature;BMP_pressure;BME280_temperature;BME280_humidity;BME280_pressure;Samples;Min_cycle;Max_cycle;Signal;HPM_P1;HPM_P2
2023/12/21 00:01:09;;;;;;;17.95;4.25;;;10.00;94.10;;;;;;5109408;28;20043;-87
2023/12/21 00:03:35;;;;;;;12.20;3.45;;;9.70;94.00;;;;;;5094979;28;20077;-86
2023/12/21 00:06:00;;;;;;;18.95;4.30;;;10.30;94.20;;;;;;5090229;28;20115;-87
2023/12/21 00:08:26;;;;;;;16.50;4.45;;;10.40;94.20;;;;;;5090979;28;20084;-86
2023/12/21 00:10:52;;;;;;;14.68;4.07;;;10.30;94.20;;;;;;5092108;28;20040;-87
2023/12/21 00:13:18;;;;;;;19.50;4.38;;;10.30;94.20;;;;;;5094882;28;20038;-86
2023/12/21 00:15:43;;;;;;;19.08;4.15;;;9.90;94.10;;;;;;5092462;28;20031;-87
2023/12/21 00:18:09;;;;;;;16.60;3.67;;;10.20;94.20;;;;;;5088876;28;20042;-86
2023/12/21 00:20:35;;;;;;;13.02;3.65;;;9.50;94.00;;;;;;5090208;28;20066;-87
2023/12/21 00:23:02;;;;;;;16.45;4.75;;;10.20;94.20;;;;;;5094708;28;20031;-86
2023/12/21 00:25:28;;;;;;;15.60;4.03;;;10.40;94.20;;;;;;5104874;28;20039;-86
2023/12/21 00:27:55;;;;;;;15.60;3.60;;;9.80;94.00;;;;;;5090321;28;20080;-86
2023/12/21 00:30:21;;;;;;;15.35;4.20;;;10.40;94.20;;;;;;5093526;28;20067;-86
2023/12/21 00:32:50;;;;;;;18.25;4.60;;;9.60;94.00;;;;;;5117961;28;20043;-87
2023/12/21 00:35:16;;;;;;;18.63;4.22;;;9.20;93.90;;;;;;5109086;28;20395;-87
2023/12/21 00:37:42;;;;;;;20.05;4.43;;;10.50;94.20;;;;;;5093110;28;20048;-87
2023/12/21 00:40:08;;;;;;;18.25;3.92;;;9.60;94.00;;;;;;5094772;28;20043;-86
2023/12/21 00:42:35;;;;;;;14.30;3.72;;;9.70;94.00;;;;;;5088870;28;20035;-86
2023/12/21 00:45:01;;;;;;;16.10;4.55;;;10.40;94.20;;;;;;5089800;28;20036;-86
2023/12/21 00:47:27;;;;;;;17.40;4.03;;;9.90;94.10;;;;;;5090670;28;20035;-87
2023/12/21 00:49:53;;;;;;;16.75;3.50;;;10.20;94.10;;;;;;5090323;28;20042;-87
2023/12/21 00:52:18;;;;;;;18.40;4.30;;;9.50;93.90;;;;;;5084945;28;20043;-87
2023/12/21 00:54:44;;;;;;;14.50;3.35;;;9.80;94.00;;;;;;5119547;28;20031;-86
2023/12/21 00:57:10;;;;;;;20.60;4.32;;;9.70;94.00;;;;;;5093740;28;20070;-87
2023/12/21 00:59:36;;;;;;;16.58;4.10;;;9.70;94.00;;;;;;5094149;28;20118;-87
2023/12/21 01:02:02;;;;;;;22.60;4.25;;;10.60;94.20;;;;;;5104114;28;20093;-87
2023/12/21 01:04:28;;;;;;;13.70;4.38;;;9.80;94.00;;;;;;5110181;28;20143;-87
2023/12/21 01:06:53;;;;;;;9.63;3.45;;;10.50;94.10;;;;;;5092084;28;20045;-87
2023/12/21 01:09:19;;;;;;;15.65;3.58;;;10.40;94.10;;;;;;5089164;28;20040;-87
2023/12/21 01:11:45;;;;;;;12.80;3.78;;;9.80;93.90;;;;;;5089908;28;20087;-87
2023/12/21 01:14:11;;;;;;;18.85;3.70;;;10.50;94.10;;;;;;5109887;28;20031;-87
2023/12/21 01:16:37;;;;;;;14.95;3.45;;;9.60;93.90;;;;;;5094011;28;20393;-87
2023/12/21 01:19:02;;;;;;;18.20;3.72;;;10.40;94.10;;;;;;5091713;28;20078;-86
2023/12/21 01:21:28;;;;;;;14.13;3.10;;;10.10;94.00;;;;;;5108456;28;20107;-87
2023/12/21 01:23:55;;;;;;;20.63;4.43;;;9.80;93.90;;;;;;5092863;28;20042;-87
2023/12/21 01:26:21;;;;;;;15.55;3.28;;;9.80;94.10;;;;;;5094304;28;20043;-87
2023/12/21 01:28:46;;;;;;;16.23;3.83;;;9.80;93.90;;;;;;5109652;28;20532;-87
2023/12/21 01:31:12;;;;;;;13.02;3.92;;;9.80;93.90;;;;;;5090578;28;20092;-87
2023/12/21 01:33:38;;;;;;;14.43;2.95;;;9.80;93.90;;;;;;5091975;28;20505;-86
2023/12/21 01:36:07;;;;;;;14.55;2.75;;;9.80;93.80;;;;;;5089316;28;20043;-87
2023/12/21 01:38:33;;;;;;;14.32;2.90;;;9.80;93.90;;;;;;5106847;28;20043;-87
2023/12/21 01:40:59;;;;;;;14.90;3.30;;;9.90;93.90;;;;;;5090355;28;20074;-87
2023/12/21 01:43:25;;;;;;;18.45;3.53;;;10.00;93.90;;;;;;5087868;28;20063;-87
2023/12/21 01:45:52;;;;;;;18.15;3.35;;;9.80;93.80;;;;;;5092750;28;20036;-87
2023/12/21 01:48:18;;;;;;;12.07;3.10;;;9.80;93.80;;;;;;5108453;28;20036;-87
2023/12/21 01:50:44;;;;;;;17.70;3.47;;;9.80;93.80;;;;;;5089162;28;20062;-87
2023/12/21 01:53:12;;;;;;;13.52;3.22;;;9.90;93.80;;;;;;5087098;28;20038;-87
2023/12/21 01:55:38;;;;;;;16.85;3.40;;;9.90;93.80;;;;;;5097079;28;20075;-87
2023/12/21 01:58:05;;;;;;;10.60;2.53;;;9.80;93.70;;;;;;5094381;28;20035;-87
2023/12/21 02:00:31;;;;;;;13.75;2.80;;;9.90;93.80;;;;;;5087318;28;20047;-87
2023/12/21 02:02:57;;;;;;;16.63;3.35;;;10.00;93.80;;;;;;5090773;28;20035;-87
2023/12/21 02:05:22;;;;;;;18.65;3.10;;;10.50;93.90;;;;;;5088905;28;20039;-87
2023/12/21 02:07:48;;;;;;;13.07;2.38;;;10.30;93.80;;;;;;5091390;28;20042;-87
2023/12/21 02:10:14;;;;;;;12.95;3.03;;;10.40;94.00;;;;;;5105125;28;20082;-87
2023/12/21 02:12:39;;;;;;;8.30;2.30;;;10.50;93.90;;;;;;5091825;28;20107;-87
2023/12/21 02:15:07;;;;;;;13.45;2.80;;;9.80;93.60;;;;;;5110345;28;20040;-87
2023/12/21 02:17:34;;;;;;;12.00;2.50;;;9.80;93.60;;;;;;5106190;28;20035;-87
2023/12/21 02:20:01;;;;;;;11.55;2.47;;;10.50;93.80;;;;;;5088844;28;20109;-87
2023/12/21 02:22:28;;;;;;;11.50;2.03;;;10.20;93.70;;;;;;5086667;28;20067;-87
2023/12/21 02:24:55;;;;;;;13.52;2.38;;;9.80;93.60;;;;;;5085001;28;20491;-87
2023/12/21 02:27:21;;;;;;;13.43;3.40;;;10.20;93.70;;;;;;5103695;28;20039;-87
2023/12/21 02:29:47;;;;;;;13.75;2.42;;;10.40;93.80;;;;;;5087945;28;20046;-87
2023/12/21 02:32:12;;;;;;;12.00;2.83;;;10.50;93.80;;;;;;5092220;28;20043;-87
2023/12/21 02:34:38;;;;;;;10.43;2.20;;;10.30;93.70;;;;;;5091576;28;20036;-87
2023/12/21 02:37:04;;;;;;;10.48;3.03;;;10.60;93.80;;;;;;5106826;28;20063;-87
2023/12/21 02:39:29;;;;;;;12.82;2.92;;;10.40;93.70;;;;;;5093260;28;20042;-87
2023/12/21 02:41:55;;;;;;;9.43;2.17;;;10.50;93.80;;;;;;5108443;28;20397;-87
2023/12/21 02:44:21;;;;;;;13.95;3.53;;;10.30;93.70;;;;;;5112396;28;20509;-87
2023/12/21 02:46:46;;;;;;;12.27;2.53;;;9.80;93.60;;;;;;5094902;28;20052;-87
2023/12/21 02:49:12;;;;;;;15.75;3.22;;;10.40;93.70;;;;;;5109924;28;20042;-87
2023/12/21 02:51:38;;;;;;;12.73;3.13;;;10.50;93.70;;;;;;5092029;28;20034;-87
2023/12/21 02:54:04;;;;;;;13.98;3.28;;;9.80;93.50;;;;;;5091666;28;20435;-87
2023/12/21 02:56:30;;;;;;;14.40;2.95;;;9.90;93.50;;;;;;5111276;28;20119;-87
2023/12/21 02:58:55;;;;;;;10.45;2.65;;;9.80;93.50;;;;;;5092163;28;20121;-87
2023/12/21 03:01:21;;;;;;;11.55;2.75;;;10.00;93.60;;;;;;5094471;28;20039;-87
2023/12/21 03:03:47;;;;;;;9.68;2.80;;;9.80;93.50;;;;;;5091629;28;20050;-87
2023/12/21 03:06:12;;;;;;;12.30;2.95;;;9.80;93.50;;;;;;5092854;28;20051;-87
2023/12/21 03:08:39;;;;;;;8.18;2.42;;;10.20;93.60;;;;;;5112898;28;20038;-87
2023/12/21 03:11:06;;;;;;;13.50;3.30;;;9.80;93.60;;;;;;5095390;28;20031;-87
2023/12/21 03:13:32;;;;;;;9.65;2.90;;;9.80;93.50;;;;;;5094447;28;20038;-87
2023/12/21 03:15:58;;;;;;;11.07;2.80;;;9.90;93.60;;;;;;5094586;28;20035;-87
2023/12/21 03:18:24;;;;;;;11.48;2.80;;;9.90;93.60;;;;;;5111090;28;20063;-87
2023/12/21 03:20:50;;;;;;;12.77;3.03;;;10.70;93.80;;;;;;5113934;28;20095;-87
2023/12/21 03:23:15;;;;;;;15.15;3.58;;;10.40;93.70;;;;;;5099867;28;20090;-87
2023/12/21 03:25:41;;;;;;;10.43;2.70;;;10.60;93.80;;;;;;5107459;28;20513;-87
2023/12/21 03:28:09;;;;;;;8.55;2.97;;;9.80;93.50;;;;;;5111744;28;20505;-87
2023/12/21 03:30:35;;;;;;;13.57;3.25;;;9.80;93.50;;;;;;5095557;28;20044;-87
2023/12/21 03:33:01;;;;;;;11.77;3.45;;;10.00;93.60;;;;;;5099892;28;20038;-87
2023/12/21 03:35:27;;;;;;;15.02;3.28;;;9.60;93.50;;;;;;5098319;28;20036;-87
2023/12/21 03:37:53;;;;;;;12.18;4.32;;;9.80;93.50;;;;;;5092106;28;20415;-87
2023/12/21 03:40:20;;;;;;;14.18;4.20;;;9.80;93.50;;;;;;5093748;28;20047;-86
2023/12/21 03:42:51;;;;;;;11.38;3.45;;;10.50;93.70;;;;;;5112644;28;20031;-87
2023/12/21 03:45:20;;;;;;;14.50;4.05;;;10.50;93.80;;;;;;5094539;28;20036;-87
2023/12/21 03:47:48;;;;;;;12.02;3.63;;;9.60;93.50;;;;;;5109991;28;20115;-87
2023/12/21 03:50:14;;;;;;;15.45;3.95;;;9.80;93.60;;;;;;5082558;28;20108;-87
2023/12/21 03:52:40;;;;;;;15.77;4.20;;;9.80;93.60;;;;;;5095780;28;20436;-87
2023/12/21 03:55:06;;;;;;;11.25;4.65;;;10.40;93.80;;;;;;5119467;28;20084;-87
2023/12/21 03:57:32;;;;;;;14.60;4.50;;;9.80;93.60;;;;;;5092567;28;20088;-87
2023/12/21 03:59:57;;;;;;;10.25;3.42;;;10.50;93.80;;;;;;5093056;28;20043;-87
2023/12/21 04:02:23;;;;;;;12.20;3.60;;;9.80;93.60;;;;;;5095067;28;20514;-86
2023/12/21 04:04:49;;;;;;;13.70;3.70;;;9.80;93.80;;;;;;5088694;28;20074;-87
2023/12/21 04:07:15;;;;;;;13.45;4.07;;;9.70;93.60;;;;;;5087175;28;20043;-87
2023/12/21 04:09:40;;;;;;;14.90;3.33;;;10.10;93.70;;;;;;5090002;28;20098;-87
2023/12/21 04:12:07;;;;;;;11.45;3.20;;;9.80;93.70;;;;;;5092763;28;20451;-87
2023/12/21 04:14:33;;;;;;;12.18;3.58;;;9.80;93.70;;;;;;5108464;28;20478;-86
2023/12/21 04:16:58;;;;;;;11.85;3.40;;;10.10;94.00;;;;;;5110602;28;20046;-87
2023/12/21 04:19:24;;;;;;;10.57;4.18;;;10.40;93.90;;;;;;5092376;28;20039;-87
2023/12/21 04:21:50;;;;;;;19.38;3.85;;;9.80;93.70;;;;;;5093706;28;20042;-87
2023/12/21 04:24:16;;;;;;;7.07;2.83;;;9.90;93.70;;;;;;5111136;28;20052;-87
2023/12/21 04:26:41;;;;;;;11.18;3.45;;;10.20;93.80;;;;;;5094589;28;20042;-87
2023/12/21 04:29:07;;;;;;;11.35;3.17;;;10.50;93.90;;;;;;5088869;28;20401;-87
2023/12/21 04:31:33;;;;;;;15.38;4.40;;;10.30;93.90;;;;;;5090702;28;20035;-86
2023/12/21 04:33:58;;;;;;;13.30;3.60;;;10.10;93.80;;;;;;5094118;28;20432;-86
2023/12/21 04:36:24;;;;;;;12.77;2.90;;;9.80;93.70;;;;;;5106537;28;20042;-86
2023/12/21 04:38:50;;;;;;;9.60;3.00;;;9.80;93.70;;;;;;5091325;27;20066;-86
2023/12/21 04:41:15;;;;;;;11.07;3.17;;;9.80;93.80;;;;;;5089299;27;20043;-87
2023/12/21 04:43:42;;;;;;;9.15;2.95;;;9.80;93.80;;;;;;5099564;27;20497;-86
2023/12/21 04:46:09;;;;;;;9.55;3.25;;;10.20;93.90;;;;;;5104870;27;20100;-87
2023/12/21 04:48:34;;;;;;;14.15;3.40;;;9.80;93.80;;;;;;5098184;27;20104;-87
2023/12/21 04:51:01;;;;;;;9.63;3.28;;;9.80;93.70;;;;;;5095916;27;20035;-86
2023/12/21 04:53:27;;;;;;;10.13;2.60;;;9.80;93.90;;;;;;5096037;27;20031;-86
2023/12/21 04:55:52;;;;;;;11.30;2.83;;;9.80;93.70;;;;;;5096487;27;20378;-86
2023/12/21 04:58:18;;;;;;;12.30;3.20;;;9.80;93.70;;;;;;5111959;28;20035;-87
2023/12/21 05:00:50;;;;;;;12.35;3.25;;;9.80;93.70;;;;;;5111880;27;20042;-86
2023/12/21 05:03:19;;;;;;;12.88;3.50;;;9.80;93.70;;;;;;5095747;27;20035;-87
2023/12/21 05:05:46;;;;;;;14.70;3.85;;;9.80;93.80;;;;;;5093136;27;20133;-86
2023/12/21 05:08:12;;;;;;;11.25;2.88;;;9.80;93.70;;;;;;5110655;27;20035;-86
2023/12/21 05:10:38;;;;;;;15.52;3.45;;;9.80;93.80;;;;;;5096157;27;20062;-86
2023/12/21 05:13:03;;;;;;;10.55;2.78;;;9.80;93.70;;;;;;5096410;27;20062;-86
2023/12/21 05:15:29;;;;;;;11.23;2.88;;;9.80;93.80;;;;;;5094906;27;20960;-87
2023/12/21 05:17:54;;;;;;;17.73;4.07;;;10.10;93.80;;;;;;5084876;27;20027;-86
2023/12/21 05:20:20;;;;;;;12.73;2.95;;;10.30;93.90;;;;;;5114078;27;20477;-86
2023/12/21 05:22:46;;;;;;;11.00;2.38;;;9.80;93.70;;;;;;5095515;27;20118;-87
2023/12/21 05:25:11;;;;;;;9.38;2.85;;;10.30;93.90;;;;;;5095075;27;20031;-87
2023/12/21 05:27:37;;;;;;;11.25;2.47;;;9.80;93.70;;;;;;5089276;27;20405;-88
2023/12/21 05:30:03;;;;;;;11.77;2.13;;;9.80;93.70;;;;;;5097256;27;20124;-86
2023/12/21 05:32:30;;;;;;;11.07;2.53;;;9.80;93.70;;;;;;5090022;27;20062;-87
2023/12/21 05:34:56;;;;;;;10.52;1.95;;;9.80;93.70;;;;;;5087496;28;20048;-87
2023/12/21 05:37:21;;;;;;;10.40;2.35;;;9.80;93.70;;;;;;5100604;28;20051;-87
2023/12/21 05:39:49;;;;;;;12.93;2.45;;;9.90;93.70;;;;;;5110236;28;20103;-87
2023/12/21 05:42:14;;;;;;;14.95;2.85;;;9.80;93.70;;;;;;5094066;28;20537;-87
2023/12/21 05:44:40;;;;;;;14.02;2.15;;;10.30;93.80;;;;;;5088236;28;20070;-87
2023/12/21 05:47:06;;;;;;;13.02;2.65;;;9.90;93.70;;;;;;5094009;28;20039;-87
2023/12/21 05:49:31;;;;;;;13.18;2.55;;;9.90;93.60;;;;;;5090573;28;20027;-87
2023/12/21 05:51:57;;;;;;;9.70;1.98;;;9.90;93.60;;;;;;5099767;28;20050;-87
2023/12/21 05:54:22;;;;;;;10.73;2.08;;;9.90;93.60;;;;;;5100892;28;20038;-87
2023/12/21 05:56:48;;;;;;;11.02;2.15;;;9.90;93.60;;;;;;5098617;28;20114;-87
2023/12/21 05:59:14;;;;;;;11.88;2.70;;;9.90;93.60;;;;;;5109210;28;20482;-87
2023/12/21 06:01:41;;;;;;;10.63;2.35;;;9.90;93.60;;;;;;5093929;28;20126;-87
2023/12/21 06:04:07;;;;;;;7.85;1.90;;;9.90;93.60;;;;;;5105723;28;20413;-86
2023/12/21 06:06:32;;;;;;;13.70;2.42;;;9.90;93.60;;;;;;5087758;28;20035;-86
2023/12/21 06:08:58;;;;;;;13.60;2.72;;;9.90;93.60;;;;;;5093796;28;20118;-86
2023/12/21 06:11:24;;;;;;;10.35;2.25;;;9.90;93.60;;;;;;5091432;28;20024;-87
2023/12/21 06:13:49;;;;;;;12.52;2.88;;;9.90;93.60;;;;;;5090197;28;20063;-87
2023/12/21 06:16:15;;;;;;;10.75;2.80;;;10.50;93.80;;;;;;5089109;28;20051;-87
2023/12/21 06:18:41;;;;;;;12.65;2.53;;;9.90;93.60;;;;;;5105988;28;20080;-88
2023/12/21 06:21:07;;;;;;;12.43;2.38;;;10.00;93.60;;;;;;5089098;27;20084;-88
2023/12/21 06:23:32;;;;;;;15.35;3.35;;;9.90;93.60;;;;;;5111953;27;20027;-87
2023/12/21 06:25:58;;;;;;;9.80;2.20;;;10.00;93.60;;;;;;5094228;27;20096;-88
2023/12/21 06:28:24;;;;;;;9.25;1.88;;;10.00;93.60;;;;;;5107482;27;20058;-88
2023/12/21 06:30:50;;;;;;;11.40;2.15;;;10.20;93.60;;;;;;5110276;27;20055;-88
2023/12/21 06:33:16;;;;;;;8.27;2.42;;;10.00;93.50;;;;;;5094638;27;20047;-88
2023/12/21 06:35:41;;;;;;;10.63;1.83;;;10.00;93.50;;;;;;5108412;27;20041;-88
2023/12/21 06:38:07;;;;;;;9.05;1.90;;;10.00;93.50;;;;;;5095306;27;20458;-88
2023/12/21 06:40:33;;;;;;;8.35;1.92;;;10.00;93.50;;;;;;5091073;28;20039;-88
2023/12/21 06:42:58;;;;;;;9.82;2.30;;;10.00;93.50;;;;;;5110139;27;20027;-88
2023/12/21 06:45:25;;;;;;;8.30;2.67;;;10.00;93.50;;;;;;5097190;27;20035;-88
2023/12/21 06:47:51;;;;;;;8.82;2.45;;;10.00;93.50;;;;;;5107490;27;20394;-85
2023/12/21 06:50:16;;;;;;;11.50;2.65;;;10.00;93.50;;;;;;5091014;28;20032;-88
2023/12/21 06:52:42;;;;;;;8.45;2.08;;;10.00;93.50;;;;;;5096003;27;20039;-88
2023/12/21 06:55:08;;;;;;;10.02;2.00;;;10.00;93.40;;;;;;5092193;27;20031;-88
2023/12/21 06:57:34;;;;;;;8.65;1.83;;;10.00;93.40;;;;;;5094341;27;20122;-88
2023/12/21 07:00:00;;;;;;;6.60;1.98;;;10.70;93.60;;;;;;5095236;27;20128;-88
2023/12/21 07:02:25;;;;;;;10.63;2.03;;;10.00;93.40;;;;;;5114046;27;20035;-88
2023/12/21 07:04:51;;;;;;;7.38;1.95;;;10.00;93.40;;;;;;5110128;27;20042;-88
2023/12/21 07:07:16;;;;;;;8.77;2.38;;;10.00;93.40;;;;;;5112544;27;20028;-88
2023/12/21 07:09:42;;;;;;;13.05;2.75;;;10.00;93.40;;;;;;5107814;27;20119;-88
2023/12/21 07:12:08;;;;;;;8.93;1.95;;;10.00;93.40;;;;;;5112349;27;20035;-88
2023/12/21 07:14:33;;;;;;;12.23;2.38;;;10.00;93.40;;;;;;5110065;27;20031;-88
2023/12/21 07:16:59;;;;;;;8.02;1.90;;;10.00;93.40;;;;;;5108735;27;20470;-88
2023/12/21 07:19:24;;;;;;;10.68;2.58;;;10.00;93.40;;;;;;5092823;28;20080;-88
2023/12/21 07:21:50;;;;;;;11.55;2.30;;;10.00;93.40;;;;;;5107443;27;20039;-88
2023/12/21 07:24:16;;;;;;;7.38;2.38;;;10.00;93.40;;;;;;5093663;27;20039;-88
2023/12/21 07:26:41;;;;;;;7.30;2.15;;;10.00;93.40;;;;;;5094310;27;20042;-88
2023/12/21 07:29:07;;;;;;;8.82;2.10;;;10.00;93.40;;;;;;5098809;28;20035;-88
2023/12/21 07:31:32;;;;;;;7.15;2.60;;;10.00;93.40;;;;;;5096877;27;20080;-88
2023/12/21 07:33:59;;;;;;;9.35;2.50;;;10.00;93.50;;;;;;5087919;27;20413;-88
2023/12/21 07:36:25;;;;;;;8.60;2.33;;;10.00;93.50;;;;;;5092857;27;20073;-89
2023/12/21 07:38:50;;;;;;;7.63;1.65;;;10.00;93.50;;;;;;5108839;27;20042;-88
2023/12/21 07:41:16;;;;;;;12.02;2.65;;;10.00;93.50;;;;;;5110840;27;20431;-88
2023/12/21 07:43:41;;;;;;;10.18;2.38;;;10.00;93.50;;;;;;5093296;27;20035;-88
2023/12/21 07:46:10;;;;;;;5.68;2.35;;;10.00;93.50;;;;;;5107418;27;20031;-89
2023/12/21 07:48:36;;;;;;;8.35;2.20;;;10.00;93.60;;;;;;5108670;28;20073;-90
2023/12/21 07:51:01;;;;;;;10.52;2.42;;;10.00;93.60;;;;;;5099502;27;20043;-88
2023/12/21 07:53:27;;;;;;;6.75;2.20;;;10.00;93.60;;;;;;5100606;27;20037;-89
2023/12/21 07:55:53;;;;;;;7.20;2.25;;;10.00;93.60;;;;;;5102544;27;20080;-89
2023/12/21 07:58:18;;;;;;;6.57;2.03;;;10.00;93.60;;;;;;5075613;27;20118;-88
2023/12/21 08:00:44;;;;;;;6.70;1.70;;;10.00;93.60;;;;;;5092189;27;20035;-89
2023/12/21 08:03:09;;;;;;;5.65;1.45;;;10.00;93.60;;;;;;5107923;27;20065;-90
2023/12/21 08:05:36;;;;;;;6.43;1.88;;;10.00;93.70;;;;;;5098576;27;20027;-87
2023/12/21 08:08:03;;;;;;;4.43;1.40;;;9.90;93.60;;;;;;5096746;27;20031;-87
2023/12/21 08:10:30;;;;;;;5.10;1.80;;;10.00;93.70;;;;;;5117070;27;20063;-88
2023/12/21 08:12:55;;;;;;;6.80;1.65;;;9.90;93.70;;;;;;5106271;27;20031;-88
2023/12/21 08:15:21;;;;;;;8.38;1.83;;;10.30;94.00;;;;;;5103581;27;20165;-88
2023/12/21 08:17:51;;;;;;;5.35;1.90;;;10.00;93.70;;;;;;5097286;27;20031;-88
2023/12/21 08:20:16;;;;;;;3.78;1.20;;;10.00;93.70;;;;;;5092669;27;20126;-88
2023/12/21 08:22:43;;;;;;;4.50;1.98;;;10.00;93.70;;;;;;5083777;27;20528;-87
2023/12/21 08:25:09;;;;;;;7.18;2.10;;;9.90;93.70;;;;;;5109805;27;20039;-87
2023/12/21 08:27:34;;;;;;;5.05;1.38;;;9.90;93.70;;;;;;5089353;27;20027;-87
2023/12/21 08:30:02;;;;;;;4.82;1.48;;;10.00;93.80;;;;;;5111031;27;20080;-87
2023/12/21 08:32:27;;;;;;;4.45;1.70;;;10.00;93.80;;;;;;5092221;27;20038;-88
2023/12/21 08:34:53;;;;;;;7.75;2.03;;;10.00;93.80;;;;;;5091167;28;20032;-90
2023/12/21 08:37:18;;;;;;;9.70;2.30;;;10.00;93.80;;;;;;5107335;27;20390;-88
2023/12/21 08:39:44;;;;;;;7.38;1.50;;;9.90;93.70;;;;;;5095298;27;20051;-87
2023/12/21 08:42:10;;;;;;;9.45;1.90;;;9.90;93.60;;;;;;5089307;27;20118;-87
2023/12/21 08:44:38;;;;;;;11.70;2.20;;;9.90;93.50;;;;;;5086427;27;20099;-86
2023/12/21 08:47:05;;;;;;;8.70;1.75;;;10.00;93.60;;;;;;5088282;27;20402;-86
2023/12/21 08:49:30;;;;;;;10.50;2.38;;;9.80;93.60;;;;;;5087818;27;20036;-87
2023/12/21 08:51:59;;;;;;;10.48;1.92;;;9.80;93.80;;;;;;5087897;27;20379;-86
2023/12/21 08:54:25;;;;;;;8.50;2.10;;;9.70;93.60;;;;;;5097364;27;20533;-86
2023/12/21 08:56:50;;;;;;;12.98;2.55;;;9.70;93.60;;;;;;5098497;27;20039;-86
2023/12/21 08:59:17;;;;;;;14.00;3.20;;;9.90;93.70;;;;;;5091488;27;20043;-86
2023/12/21 09:01:43;;;;;;;9.20;2.08;;;9.70;93.60;;;;;;5111241;27;20053;-88
2023/12/21 09:04:08;;;;;;;6.70;1.95;;;9.60;93.60;;;;;;5091494;27;20023;-86
2023/12/21 09:06:34;;;;;;;10.10;2.13;;;9.60;93.60;;;;;;5092054;27;20032;-88
2023/12/21 09:09:01;;;;;;;10.30;2.05;;;9.60;93.60;;;;;;5088684;28;20043;-86
2023/12/21 09:11:27;;;;;;;7.47;2.00;;;9.50;93.60;;;;;;5088663;27;20104;-86
2023/12/21 09:13:55;;;;;;;11.00;2.13;;;9.60;93.70;;;;;;5090762;27;20096;-86
2023/12/21 09:16:24;;;;;;;7.45;1.60;;;9.50;93.60;;;;;;5090068;27;20039;-87
2023/12/21 09:18:52;;;;;;;9.88;2.50;;;9.50;93.70;;;;;;5100577;27;20549;-86
2023/12/21 09:21:17;;;;;;;9.15;2.28;;;9.50;93.70;;;;;;5094592;27;20046;-86
2023/12/21 09:23:43;;;;;;;9.30;2.17;;;9.50;93.70;;;;;;5107636;27;20035;-86
2023/12/21 09:26:09;;;;;;;5.93;1.73;;;9.50;93.70;;;;;;5090544;28;20042;-86
2023/12/21 09:28:37;;;;;;;13.15;2.03;;;9.50;93.70;;;;;;5089734;28;20035;-86
2023/12/21 09:31:07;;;;;;;11.18;2.22;;;9.40;93.70;;;;;;5102165;27;20038;-85
2023/12/21 09:33:34;;;;;;;11.25;2.33;;;9.40;93.70;;;;;;5109184;27;20097;-88
2023/12/21 09:36:06;;;;;;;10.00;2.15;;;9.40;93.70;;;;;;5090589;28;20032;-88
2023/12/21 09:38:32;;;;;;;10.20;1.90;;;9.40;93.80;;;;;;5086468;28;20043;-89
2023/12/21 09:40:58;;;;;;;16.75;2.75;;;9.40;93.80;;;;;;5084908;28;20050;-94
2023/12/21 09:43:24;;;;;;;17.00;3.03;;;9.40;93.80;;;;;;5091448;28;20068;-88
2023/12/21 09:45:53;;;;;;;15.77;2.75;;;9.40;94.00;;;;;;5086228;28;20435;-88
2023/12/21 09:48:23;;;;;;;16.42;3.00;;;9.50;94.10;;;;;;5090293;28;20036;-88
2023/12/21 09:50:49;;;;;;;17.02;2.70;;;9.60;94.20;;;;;;5104176;28;20044;-88
2023/12/21 09:53:16;;;;;;;13.82;2.50;;;9.60;94.20;;;;;;5107374;28;20036;-88
2023/12/21 09:55:44;;;;;;;15.52;2.70;;;9.70;94.30;;;;;;5099289;28;20048;-89
2023/12/21 09:58:13;;;;;;;11.55;2.97;;;9.80;94.40;;;;;;5113013;28;20504;-88
2023/12/21 10:00:39;;;;;;;15.45;2.30;;;9.80;94.40;;;;;;5097316;28;20419;-89
2023/12/21 10:03:05;;;;;;;13.13;2.08;;;9.90;94.40;;;;;;5092997;28;20111;-88
2023/12/21 10:05:32;;;;;;;10.10;2.00;;;10.00;94.50;;;;;;5088558;28;20119;-88
2023/12/21 10:07:58;;;;;;;14.30;3.10;;;10.00;94.50;;;;;;5108065;28;20093;-89
2023/12/21 10:10:25;;;;;;;14.50;2.58;;;10.10;94.50;;;;;;5090785;28;20032;-89
2023/12/21 10:12:50;;;;;;;16.42;3.20;;;10.20;94.50;;;;;;5112251;28;20043;-88
2023/12/21 10:15:20;;;;;;;17.25;2.83;;;10.20;94.50;;;;;;5098536;28;20035;-89
2023/12/21 10:17:46;;;;;;;14.82;2.53;;;10.60;94.60;;;;;;5088897;28;20040;-89
2023/12/21 10:20:12;;;;;;;13.13;2.40;;;10.30;94.50;;;;;;5090726;28;20039;-89
2023/12/21 10:22:43;;;;;;;11.43;2.30;;;10.30;94.50;;;;;;5096492;28;20047;-89
2023/12/21 10:25:12;;;;;;;12.02;2.38;;;10.40;94.60;;;;;;5111774;28;20043;-89
2023/12/21 10:27:38;;;;;;;10.98;2.20;;;10.40;94.50;;;;;;5104780;28;20036;-89
2023/12/21 10:30:04;;;;;;;11.73;2.45;;;10.50;94.50;;;;;;5107798;28;20076;-88
2023/12/21 10:32:30;;;;;;;15.95;3.35;;;10.50;94.50;;;;;;5108859;28;20031;-88
2023/12/21 10:34:59;;;;;;;14.60;2.33;;;10.50;94.40;;;;;;5109460;28;20119;-89
2023/12/21 10:37:26;;;;;;;14.10;2.88;;;10.60;94.40;;;;;;5099459;28;20058;-89
2023/12/21 10:39:56;;;;;;;14.30;2.55;;;10.60;94.30;;;;;;5117436;28;20044;-89
2023/12/21 10:42:22;;;;;;;16.88;3.05;;;10.60;94.30;;;;;;5090591;28;20474;-89
2023/12/21 10:44:49;;;;;;;12.18;3.08;;;10.60;94.20;;;;;;5090178;28;20032;-89
2023/12/21 10:47:18;;;;;;;10.95;2.20;;;10.70;94.20;;;;;;5092062;28;20035;-89
2023/12/21 10:49:44;;;;;;;11.85;2.28;;;10.70;94.20;;;;;;5090040;28;20501;-89
2023/12/21 10:52:11;;;;;;;13.00;2.28;;;10.70;94.10;;;;;;5087134;28;20035;-88
2023/12/21 10:54:40;;;;;;;11.77;2.10;;;10.80;94.10;;;;;;5088991;28;20081;-89
2023/12/21 10:57:07;;;;;;;11.55;2.35;;;11.40;94.20;;;;;;5088424;28;20028;-89
2023/12/21 10:59:34;;;;;;;11.07;2.30;;;10.80;93.90;;;;;;5091483;28;20040;-88
2023/12/21 11:02:01;;;;;;;12.68;2.45;;;10.80;93.80;;;;;;5087762;28;20444;-89
2023/12/21 11:04:28;;;;;;;10.77;2.13;;;10.90;93.90;;;;;;5088390;28;20042;-89
2023/12/21 11:06:55;;;;;;;15.18;3.63;;;10.90;93.60;;;;;;5103516;28;20040;-89
2023/12/21 11:09:22;;;;;;;11.55;2.25;;;10.90;93.50;;;;;;5085519;28;20039;-89
2023/12/21 11:11:48;;;;;;;14.60;3.00;;;11.00;93.40;;;;;;5089623;28;20071;-88
2023/12/21 11:14:14;;;;;;;12.68;2.65;;;11.00;93.30;;;;;;5106770;28;20067;-89
2023/12/21 11:16:53;;;;;;;18.95;2.90;;;11.00;93.30;;;;;;5089427;28;20084;-89
2023/12/21 11:19:26;;;;;;;15.27;4.45;;;11.00;93.30;;;;;;5086166;28;20035;-89
2023/12/21 11:21:54;;;;;;;15.55;3.30;;;11.00;93.30;;;;;;5086016;28;20512;-89
2023/12/21 11:24:24;;;;;;;14.80;2.95;;;11.00;93.50;;;;;;5102775;28;20035;-89
2023/12/21 11:26:50;;;;;;;14.82;4.05;;;11.10;93.30;;;;;;5084669;28;20036;-89
2023/12/21 11:29:24;;;;;;;17.45;3.78;;;11.10;93.20;;;;;;5093165;28;20070;-88
2023/12/21 11:31:49;;;;;;;17.77;4.70;;;11.10;93.20;;;;;;5092901;28;20603;-89
2023/12/21 11:34:21;;;;;;;18.25;4.00;;;11.20;93.20;;;;;;5086032;28;20036;-88
2023/12/21 11:36:50;;;;;;;16.52;4.25;;;11.40;93.20;;;;;;5101767;27;20061;-88
2023/12/21 11:39:19;;;;;;;22.25;4.13;;;11.10;93.10;;;;;;5109263;27;20032;-88
2023/12/21 11:41:58;;;;;;;18.27;4.00;;;11.10;92.90;;;;;;5097596;27;20031;-88
2023/12/21 11:44:34;;;;;;;19.88;3.42;;;11.10;92.80;;;;;;5118660;27;20028;-89
2023/12/21 11:47:00;;;;;;;12.93;3.72;;;11.10;92.50;;;;;;5096924;28;20040;-88
2023/12/21 11:49:26;;;;;;;16.30;3.22;;;11.10;92.20;;;;;;5114372;27;20050;-88
2023/12/21 11:51:52;;;;;;;18.05;3.80;;;11.20;91.90;;;;;;5113775;27;20063;-88
2023/12/21 11:54:22;;;;;;;18.20;3.80;;;10.90;91.90;;;;;;5091032;27;20038;-88
2023/12/21 11:57:08;;;;;;;19.40;3.53;;;10.90;91.70;;;;;;5112978;27;20050;-88
2023/12/21 11:59:33;;;;;;;19.70;3.80;;;10.90;91.70;;;;;;5092255;27;20031;-88
2023/12/21 12:01:59;;;;;;;15.27;3.15;;;10.80;91.70;;;;;;5109671;27;20042;-88
2023/12/21 12:04:25;;;;;;;18.33;3.33;;;11.40;91.90;;;;;;5095814;27;20541;-88
2023/12/21 12:06:51;;;;;;;15.10;3.15;;;10.80;91.70;;;;;;5090936;27;20039;-89
2023/12/21 12:09:19;;;;;;;17.42;3.38;;;10.80;91.50;;;;;;5090218;28;20028;-88
2023/12/21 12:11:45;;;;;;;20.27;3.75;;;10.70;91.40;;;;;;5090687;27;20035;-88
2023/12/21 12:14:10;;;;;;;17.10;3.03;;;10.70;91.30;;;;;;5090427;27;20031;-87
2023/12/21 12:16:39;;;;;;;13.93;2.78;;;10.70;91.30;;;;;;5094298;27;20065;-88
2023/12/21 12:19:05;;;;;;;15.30;4.03;;;10.70;91.40;;;;;;5092113;27;20062;-88
2023/12/21 12:21:30;;;;;;;16.52;2.90;;;10.70;91.50;;;;;;5092763;27;20394;-88
2023/12/21 12:23:56;;;;;;;19.33;4.45;;;11.00;91.60;;;;;;5105702;27;20509;-88
2023/12/21 12:26:22;;;;;;;17.13;3.42;;;10.70;91.50;;;;;;5111499;27;20180;-89
2023/12/21 12:28:50;;;;;;;18.67;3.70;;;10.70;91.30;;;;;;5100720;27;20072;-88
2023/12/21 12:31:16;;;;;;;14.55;3.53;;;10.70;91.40;;;;;;5100831;27;20066;-88
2023/12/21 12:33:42;;;;;;;22.73;4.80;;;10.60;91.30;;;;;;5097857;27;20050;-88
2023/12/21 12:36:08;;;;;;;23.27;4.63;;;10.90;91.30;;;;;;5095952;27;20035;-88
2023/12/21 12:38:34;;;;;;;22.60;4.40;;;10.60;91.10;;;;;;5113170;27;20375;-88